createdAt,value
2022-12-18T00:01:38.808Z,3.30
2022-12-18T00:04:09.214Z,3.20
2022-12-18T00:06:37.040Z,3.93
2022-12-18T00:09:04.644Z,3.98
2022-12-18T00:11:33.083Z,4.10
2022-12-18T00:14:00.996Z,4.13
2022-12-18T00:16:31.008Z,3.83
2022-12-18T00:19:00.668Z,3.69
2022-12-18T00:21:29.723Z,3.67
2022-12-18T00:23:58.052Z,3.63
2022-12-18T00:26:28.051Z,3.85
2022-12-18T00:29:00.116Z,4.12
2022-12-18T00:31:28.208Z,4.04
2022-12-18T00:33:57.128Z,3.60
2022-12-18T00:36:27.298Z,3.27
2022-12-18T00:38:56.827Z,3.84
2022-12-18T00:41:43.856Z,4.02
2022-12-18T00:44:14.606Z,4.06
2022-12-18T00:46:43.495Z,4.22
2022-12-18T00:49:15.734Z,4.28
2022-12-18T00:51:43.526Z,4.36
2022-12-18T00:54:12.795Z,4.17
2022-12-18T00:56:48.273Z,4.03
2022-12-18T00:59:17.978Z,4.28
2022-12-18T01:01:46.488Z,3.84
2022-12-18T01:04:14.937Z,4.13
2022-12-18T01:06:46.348Z,3.84
2022-12-18T01:09:14.145Z,3.16
2022-12-18T01:11:41.901Z,3.63
2022-12-18T01:14:11.024Z,4.04
2022-12-18T01:16:38.735Z,3.95
2022-12-18T01:19:06.528Z,3.72
2022-12-18T01:21:35.090Z,3.90
2022-12-18T01:24:05.299Z,4.13
2022-12-18T01:26:33.096Z,4.11
2022-12-18T01:29:00.985Z,4.21
2022-12-18T01:31:34.180Z,4.29
2022-12-18T01:34:04.927Z,4.11
2022-12-18T01:36:35.661Z,3.91
2022-12-18T01:39:07.342Z,4.02
2022-12-18T01:41:54.330Z,4.06
2022-12-18T01:44:59.416Z,4.27
2022-12-18T01:47:35.552Z,4.02
2022-12-18T01:50:20.791Z,3.91
2022-12-18T01:52:52.599Z,4.01
2022-12-18T01:55:23.312Z,3.84
2022-12-18T01:57:55.205Z,3.40
2022-12-18T02:00:24.708Z,3.83
2022-12-18T02:02:54.041Z,3.97
2022-12-18T02:05:30.488Z,3.96
2022-12-18T02:08:31.242Z,3.83
2022-12-18T02:11:11.307Z,3.95
2022-12-18T02:13:46.876Z,4.07
2022-12-18T02:16:30.535Z,4.05
2022-12-18T02:19:03.090Z,4.04
2022-12-18T02:21:42.883Z,3.90
2022-12-18T02:24:35.395Z,3.81
2022-12-18T02:27:07.631Z,3.94
2022-12-18T02:29:41.520Z,3.74
2022-12-18T02:32:17.857Z,3.86
2022-12-18T02:34:47.292Z,3.81
2022-12-18T02:37:19.115Z,3.84
2022-12-18T02:39:50.091Z,3.74
2022-12-18T02:42:19.091Z,3.77
2022-12-18T02:44:50.290Z,3.92
2022-12-18T02:47:22.925Z,3.76
2022-12-18T02:50:14.628Z,3.71
2022-12-18T02:52:47.087Z,3.74
2022-12-18T02:56:06.002Z,3.66
2022-12-18T02:58:52.820Z,3.84
2022-12-18T03:01:28.286Z,3.71
2022-12-18T03:04:30.875Z,3.82
2022-12-18T03:07:03.857Z,3.67
2022-12-18T03:09:42.185Z,3.76
2022-12-18T03:12:36.359Z,3.68
2022-12-18T03:15:17.221Z,3.73
2022-12-18T03:17:56.160Z,3.52
2022-12-18T03:20:31.328Z,3.68
2022-12-18T03:23:03.505Z,3.61
2022-12-18T03:25:32.264Z,3.67
2022-12-18T03:28:03.198Z,3.33
2022-12-18T03:30:34.552Z,3.41
2022-12-18T03:33:14.378Z,3.19
2022-12-18T03:35:43.982Z,3.32
2022-12-18T03:38:12.822Z,3.50
2022-12-18T03:41:18.145Z,3.54
2022-12-18T03:43:52.128Z,3.52
2022-12-18T03:46:40.049Z,3.53
2022-12-18T03:49:14.911Z,3.48
2022-12-18T03:51:42.774Z,3.53
2022-12-18T03:54:12.500Z,3.47
2022-12-18T03:56:45.297Z,3.28
2022-12-18T03:59:17.077Z,2.97
2022-12-18T04:01:48.857Z,2.90
2022-12-18T04:04:19.989Z,2.79
2022-12-18T04:06:49.497Z,2.68
2022-12-18T04:09:19.343Z,2.59
2022-12-18T04:11:48.149Z,2.77
2022-12-18T04:14:18.212Z,3.14
2022-12-18T04:16:47.180Z,3.24
2022-12-18T04:19:15.412Z,3.25
2022-12-18T04:21:43.721Z,3.28
2022-12-18T04:24:11.872Z,2.62
2022-12-18T04:26:40.314Z,2.41
2022-12-18T04:29:10.250Z,2.91
2022-12-18T04:31:38.357Z,2.98
2022-12-18T04:34:06.146Z,2.98
2022-12-18T04:36:35.254Z,3.16
2022-12-18T04:39:03.672Z,2.76
2022-12-18T04:41:31.561Z,2.13
2022-12-18T04:43:59.368Z,2.20
2022-12-18T04:46:27.295Z,2.31
2022-12-18T04:48:54.875Z,2.72
2022-12-18T04:51:26.464Z,2.79
2022-12-18T04:53:55.229Z,2.31
2022-12-18T04:56:23.260Z,2.43
2022-12-18T04:58:50.915Z,2.71
2022-12-18T05:01:19.733Z,2.73
2022-12-18T05:03:47.570Z,2.63
2022-12-18T05:06:15.361Z,2.45
2022-12-18T05:08:43.272Z,2.85
2022-12-18T05:11:15.072Z,2.88
2022-12-18T05:13:44.652Z,2.84
2022-12-18T05:16:13.865Z,2.20
2022-12-18T05:18:41.769Z,2.04
2022-12-18T05:21:09.803Z,1.85
2022-12-18T05:23:38.135Z,1.54
2022-12-18T05:26:07.425Z,2.32
2022-12-18T05:28:36.844Z,2.55
2022-12-18T05:31:05.390Z,2.49
2022-12-18T05:33:35.576Z,2.42
2022-12-18T05:36:06.561Z,2.53
2022-12-18T05:38:36.007Z,2.58
2022-12-18T05:41:06.087Z,2.08
2022-12-18T05:43:35.812Z,1.55
2022-12-18T05:46:14.035Z,2.12
2022-12-18T05:48:43.160Z,2.21
2022-12-18T05:51:16.182Z,2.01
2022-12-18T05:53:44.415Z,2.39
2022-12-18T05:56:15.834Z,2.54
2022-12-18T05:58:43.472Z,2.56
2022-12-18T06:01:18.408Z,2.61
2022-12-18T06:03:47.166Z,2.43
2022-12-18T06:06:15.820Z,2.31
2022-12-18T06:08:46.384Z,1.68
2022-12-18T06:11:19.258Z,1.52
2022-12-18T06:13:47.696Z,1.71
2022-12-18T06:16:15.690Z,1.92
2022-12-18T06:18:43.357Z,2.23
2022-12-18T06:21:11.024Z,2.47
2022-12-18T06:23:39.466Z,2.59
2022-12-18T06:26:10.751Z,2.56
2022-12-18T06:28:38.438Z,2.40
2022-12-18T06:31:07.202Z,2.70
2022-12-18T06:33:35.493Z,2.72
2022-12-18T06:36:14.009Z,2.89
2022-12-18T06:38:44.306Z,2.86
2022-12-18T06:41:14.644Z,2.88
2022-12-18T06:43:43.343Z,2.97
2022-12-18T06:46:11.970Z,3.15
2022-12-18T06:48:40.310Z,3.26
2022-12-18T06:51:08.248Z,2.62
2022-12-18T06:53:35.841Z,2.63
2022-12-18T06:56:09.835Z,3.14
2022-12-18T06:58:39.977Z,2.66
2022-12-18T07:01:10.187Z,2.73
2022-12-18T07:03:40.433Z,3.16
2022-12-18T07:06:15.586Z,2.96
2022-12-18T07:08:43.669Z,2.78
2022-12-18T07:11:12.071Z,2.93
2022-12-18T07:13:40.121Z,3.48
2022-12-18T07:16:24.763Z,3.32
2022-12-18T07:18:56.006Z,2.83
2022-12-18T07:21:25.371Z,2.81
2022-12-18T07:23:53.320Z,3.42
2022-12-18T07:26:22.598Z,3.44
2022-12-18T07:28:51.261Z,3.24
2022-12-18T07:31:22.090Z,3.16
2022-12-18T07:33:51.203Z,2.98
2022-12-18T07:36:19.694Z,2.90
2022-12-18T07:38:50.883Z,2.83
2022-12-18T07:41:19.793Z,2.77
2022-12-18T07:43:47.688Z,2.73
2022-12-18T07:46:16.678Z,2.60
2022-12-18T07:48:45.542Z,2.67
2022-12-18T07:51:17.923Z,2.62
2022-12-18T07:53:49.537Z,2.45
2022-12-18T07:56:29.962Z,2.40
2022-12-18T07:59:00.152Z,2.25
2022-12-18T08:01:28.464Z,2.24
2022-12-18T08:03:56.902Z,1.92
2022-12-18T08:06:24.957Z,1.78
2022-12-18T08:08:56.843Z,1.49
2022-12-18T08:11:26.849Z,1.60
2022-12-18T08:13:54.757Z,1.65
2022-12-18T08:16:23.008Z,1.76
2022-12-18T08:18:53.448Z,1.19
2022-12-18T08:21:24.467Z,1.48
2022-12-18T08:23:54.623Z,1.50
2022-12-18T08:26:23.370Z,1.62
2022-12-18T08:28:51.687Z,1.88
2022-12-18T08:31:20.138Z,1.78
2022-12-18T08:33:53.293Z,1.85
2022-12-18T08:36:22.214Z,1.74
2022-12-18T08:38:49.836Z,1.69
2022-12-18T08:41:19.115Z,1.80
2022-12-18T08:44:16.314Z,1.84
2022-12-18T08:46:45.004Z,2.10
2022-12-18T08:49:13.860Z,2.33
2022-12-18T08:51:41.508Z,2.45
2022-12-18T08:54:14.927Z,2.45
2022-12-18T08:56:42.795Z,2.06
2022-12-18T08:59:15.786Z,1.96
2022-12-18T09:01:47.789Z,2.53
2022-12-18T09:04:15.388Z,2.48
2022-12-18T09:06:42.958Z,2.51
2022-12-18T09:09:11.554Z,2.47
2022-12-18T09:11:39.341Z,1.92
2022-12-18T09:14:07.019Z,2.61
2022-12-18T09:16:36.137Z,2.92
2022-12-18T09:19:05.613Z,2.83
2022-12-18T09:21:37.142Z,2.83
2022-12-18T09:24:08.797Z,2.76
2022-12-18T09:26:36.897Z,3.22
2022-12-18T09:29:05.756Z,3.21
2022-12-18T09:31:34.257Z,3.47
2022-12-18T09:34:01.896Z,3.16
2022-12-18T09:36:29.680Z,2.27
2022-12-18T09:38:57.190Z,3.31
2022-12-18T09:41:40.176Z,3.80
2022-12-18T09:44:29.290Z,4.01
2022-12-18T09:46:56.820Z,3.95
2022-12-18T09:49:29.841Z,3.85
2022-12-18T09:52:10.838Z,4.00
2022-12-18T09:54:42.845Z,4.17
2022-12-18T09:57:32.986Z,3.91
2022-12-18T10:00:20.140Z,4.19
2022-12-18T10:02:49.033Z,3.80
2022-12-18T10:05:32.333Z,4.23
2022-12-18T10:08:14.843Z,4.44
2022-12-18T10:11:41.810Z,4.84
2022-12-18T10:14:36.957Z,4.58
2022-12-18T10:17:27.559Z,4.87
2022-12-18T10:20:02.223Z,4.97
2022-12-18T10:22:35.611Z,4.40
2022-12-18T10:25:15.496Z,5.20
2022-12-18T10:27:43.110Z,4.27
2022-12-18T10:30:21.956Z,5.09
2022-12-18T10:32:49.830Z,5.16
2022-12-18T10:35:27.792Z,5.56
2022-12-18T10:38:04.524Z,4.64
2022-12-18T10:40:33.843Z,4.99
2022-12-18T10:43:06.794Z,4.12
2022-12-18T10:45:34.755Z,5.02
2022-12-18T10:48:04.350Z,5.37
2022-12-18T10:51:09.761Z,4.29
2022-12-18T10:53:31.799Z,4.79
2022-12-18T10:56:04.588Z,5.27
2022-12-18T10:58:37.908Z,4.72
2022-12-18T11:01:10.496Z,5.24
2022-12-18T11:04:02.688Z,4.33
2022-12-18T11:06:33.882Z,4.56
2022-12-18T11:09:19.841Z,5.04
2022-12-18T11:11:56.326Z,5.05
2022-12-18T11:14:31.796Z,5.20
2022-12-18T11:20:00.925Z,4.14
2022-12-18T11:22:31.882Z,4.59
2022-12-18T11:27:58.015Z,4.31
2022-12-18T11:30:32.992Z,3.67
2022-12-18T11:33:23.052Z,3.95
2022-12-18T11:36:03.759Z,4.24
2022-12-18T11:38:40.355Z,4.26
2022-12-18T11:42:08.446Z,4.15
2022-12-18T11:44:54.485Z,3.73
2022-12-18T11:47:34.391Z,4.05
2022-12-18T11:50:04.358Z,3.87
2022-12-18T11:52:40.073Z,3.94
2022-12-18T11:55:36.577Z,3.74
2022-12-18T11:58:31.127Z,3.29
2022-12-18T12:01:15.453Z,3.34
2022-12-18T12:03:58.341Z,3.09
2022-12-18T12:06:50.597Z,3.53
2022-12-18T12:09:28.237Z,3.92
2022-12-18T12:12:07.835Z,3.44
2022-12-18T12:15:07.011Z,3.83
2022-12-18T12:17:51.424Z,3.61
2022-12-18T12:20:22.443Z,3.37
2022-12-18T12:23:06.927Z,4.11
2022-12-18T12:25:55.003Z,4.18
2022-12-18T12:29:09.225Z,3.58
2022-12-18T12:31:41.426Z,4.04
2022-12-18T12:34:20.282Z,3.82
2022-12-18T12:36:51.008Z,3.62
2022-12-18T12:39:24.221Z,3.66
2022-12-18T12:42:11.352Z,3.74
2022-12-18T12:44:48.999Z,4.13
2022-12-18T12:47:29.479Z,4.51
2022-12-18T12:50:00.581Z,4.48
2022-12-18T12:52:36.500Z,4.30
2022-12-18T12:55:11.617Z,4.39
2022-12-18T12:57:49.565Z,4.01
2022-12-18T13:00:20.379Z,4.36
2022-12-18T13:02:52.811Z,4.28
2022-12-18T13:05:38.973Z,4.63
2022-12-18T13:08:09.835Z,4.72
2022-12-18T13:10:41.598Z,3.95
2022-12-18T13:13:17.222Z,4.45
2022-12-18T13:16:06.690Z,3.56
2022-12-18T13:18:36.256Z,4.21
2022-12-18T13:21:18.988Z,4.18
2022-12-18T13:23:46.974Z,4.43
2022-12-18T13:26:19.123Z,4.57
2022-12-18T13:28:55.912Z,4.62
2022-12-18T13:31:42.274Z,4.57
2022-12-18T13:34:26.731Z,4.58
2022-12-18T13:37:19.007Z,3.83
2022-12-18T13:39:47.230Z,4.34
2022-12-18T13:42:34.881Z,4.57
2022-12-18T13:45:03.605Z,4.57
2022-12-18T13:47:38.485Z,4.62
2022-12-18T13:50:36.442Z,4.38
2022-12-18T13:53:05.962Z,4.58
2022-12-18T13:55:34.607Z,4.36
2022-12-18T13:58:08.202Z,4.39
2022-12-18T14:00:36.890Z,4.21
2022-12-18T14:03:22.725Z,4.08
2022-12-18T14:05:56.873Z,4.39
2022-12-18T14:08:34.024Z,4.07
2022-12-18T14:11:04.517Z,4.21
2022-12-18T14:13:43.429Z,4.18
2022-12-18T14:16:15.590Z,3.85
2022-12-18T14:18:52.758Z,3.57
2022-12-18T14:21:24.806Z,3.56
2022-12-18T14:24:20.256Z,3.70
2022-12-18T14:26:50.474Z,3.65
2022-12-18T14:29:30.911Z,3.37
2022-12-18T14:32:14.952Z,3.81
2022-12-18T14:35:09.562Z,3.83
2022-12-18T14:37:37.211Z,3.92
2022-12-18T14:40:14.201Z,3.83
2022-12-18T14:42:41.756Z,3.81
2022-12-18T14:45:43.503Z,3.66
2022-12-18T14:48:23.271Z,3.72
2022-12-18T14:51:01.247Z,3.72
2022-12-18T14:53:49.141Z,3.78
2022-12-18T14:56:25.057Z,3.91
2022-12-18T14:58:56.678Z,3.97
2022-12-18T15:01:33.186Z,3.53
2022-12-18T15:04:03.244Z,3.19
2022-12-18T15:06:40.884Z,2.91
2022-12-18T15:09:25.981Z,2.76
2022-12-18T15:12:00.230Z,2.91
2022-12-18T15:14:30.926Z,3.39
2022-12-18T15:17:00.621Z,3.04
2022-12-18T15:19:37.239Z,3.22
2022-12-18T15:22:18.573Z,2.92
2022-12-18T15:24:46.351Z,2.95
2022-12-18T15:27:39.281Z,2.96
2022-12-18T15:30:09.956Z,2.90
2022-12-18T15:32:40.557Z,3.08
2022-12-18T15:35:20.157Z,3.01
2022-12-18T15:37:48.911Z,3.09
2022-12-18T15:40:20.011Z,3.01
2022-12-18T15:43:06.753Z,2.89
2022-12-18T15:45:34.788Z,2.67
2022-12-18T15:48:21.128Z,2.44
2022-12-18T15:50:50.872Z,2.95
2022-12-18T15:53:20.154Z,3.20
2022-12-18T15:56:06.550Z,2.93
2022-12-18T15:58:34.795Z,3.13
2022-12-18T16:01:03.137Z,3.32
2022-12-18T16:03:31.613Z,3.54
2022-12-18T16:06:01.293Z,3.10
2022-12-18T16:08:30.936Z,3.12
2022-12-18T16:10:59.296Z,2.47
2022-12-18T16:13:27.128Z,2.51
2022-12-18T16:15:55.008Z,2.54
2022-12-18T16:18:23.215Z,2.51
2022-12-18T16:20:51.172Z,2.80
2022-12-18T16:23:19.020Z,2.89
2022-12-18T16:25:47.432Z,3.02
2022-12-18T16:28:16.494Z,2.32
2022-12-18T16:30:44.329Z,2.54
2022-12-18T16:33:12.565Z,2.73
2022-12-18T16:35:40.517Z,2.86
2022-12-18T16:38:08.627Z,2.66
2022-12-18T16:40:58.836Z,2.62
2022-12-18T16:43:26.661Z,2.52
2022-12-18T16:45:58.356Z,2.50
2022-12-18T16:48:26.288Z,2.68
2022-12-18T16:51:04.940Z,2.32
2022-12-18T16:53:34.295Z,2.07
2022-12-18T16:56:03.258Z,1.80
2022-12-18T16:58:33.013Z,1.67
2022-12-18T17:01:01.096Z,1.63
2022-12-18T17:03:29.156Z,2.54
2022-12-18T17:06:03.454Z,1.77
2022-12-18T17:08:32.620Z,2.14
2022-12-18T17:11:07.523Z,2.30
2022-12-18T17:13:35.798Z,2.63
2022-12-18T17:16:05.213Z,2.72
2022-12-18T17:18:34.533Z,2.24
2022-12-18T17:21:06.028Z,2.16
2022-12-18T17:23:33.803Z,2.33
2022-12-18T17:26:01.655Z,2.61
2022-12-18T17:28:30.906Z,2.70
2022-12-18T17:30:58.737Z,2.62
2022-12-18T17:33:27.241Z,2.72
2022-12-18T17:35:59.210Z,2.76
2022-12-18T17:38:27.735Z,2.75
2022-12-18T17:41:01.474Z,2.16
2022-12-18T17:43:30.081Z,2.11
2022-12-18T17:46:07.875Z,1.44
2022-12-18T17:48:37.400Z,1.88
2022-12-18T17:51:11.029Z,1.76
2022-12-18T17:53:39.616Z,1.47
2022-12-18T17:56:13.448Z,1.77
2022-12-18T17:58:42.169Z,1.77
2022-12-18T18:01:13.942Z,2.23
2022-12-18T18:03:44.640Z,2.11
2022-12-18T18:06:13.581Z,2.33
2022-12-18T18:08:41.427Z,2.40
2022-12-18T18:11:32.700Z,2.66
2022-12-18T18:14:01.779Z,1.87
2022-12-18T18:16:36.600Z,2.74
2022-12-18T18:19:08.055Z,2.64
2022-12-18T18:21:43.280Z,2.67
2022-12-18T18:24:13.819Z,2.70
2022-12-18T18:26:42.450Z,2.18
2022-12-18T18:29:16.133Z,2.41
2022-12-18T18:31:44.728Z,2.52
2022-12-18T18:34:17.988Z,2.45
2022-12-18T18:36:47.011Z,2.90
2022-12-18T18:39:15.626Z,2.92
2022-12-18T18:41:47.019Z,2.83
2022-12-18T18:44:24.815Z,2.61
2022-12-18T18:46:58.960Z,2.52
2022-12-18T18:49:28.375Z,2.38
2022-12-18T18:51:57.571Z,2.12
2022-12-18T18:54:26.522Z,2.16
2022-12-18T18:59:43.620Z,2.02
2022-12-18T19:02:14.321Z,1.99
2022-12-18T19:04:45.747Z,1.99
2022-12-18T19:07:25.599Z,1.93
2022-12-18T19:10:03.932Z,1.84
2022-12-18T19:12:53.370Z,1.76
2022-12-18T19:15:22.576Z,1.67
2022-12-18T19:17:50.865Z,1.70
2022-12-18T19:20:18.970Z,1.54
2022-12-18T19:22:54.822Z,1.60
2022-12-18T19:25:40.722Z,1.60
2022-12-18T19:28:21.647Z,1.52
2022-12-18T19:30:55.369Z,1.54
2022-12-18T19:33:42.755Z,1.68
2022-12-18T19:36:24.051Z,1.77
2022-12-18T19:38:53.785Z,1.72
2022-12-18T19:41:23.354Z,1.64
2022-12-18T19:43:53.250Z,1.48
2022-12-18T19:46:22.772Z,1.48
2022-12-18T19:48:51.296Z,1.57
2022-12-18T19:51:29.987Z,1.47
2022-12-18T19:54:01.620Z,1.42
2022-12-18T19:56:32.855Z,1.37
2022-12-18T19:59:03.813Z,1.40
2022-12-18T20:01:32.181Z,1.59
2022-12-18T20:04:01.056Z,1.68
2022-12-18T20:06:46.531Z,1.50
2022-12-18T20:09:15.056Z,1.58
2022-12-18T20:11:42.944Z,1.70
2022-12-18T20:14:12.578Z,1.71
2022-12-18T20:16:41.509Z,1.67
2022-12-18T20:19:12.111Z,1.76
2022-12-18T20:21:40.382Z,1.78
2022-12-18T20:24:09.471Z,1.57
2022-12-18T20:26:37.188Z,1.89
2022-12-18T20:29:05.192Z,2.01
2022-12-18T20:31:33.136Z,2.15
2022-12-18T20:34:02.617Z,2.11
2022-12-18T20:36:34.075Z,2.14
2022-12-18T20:39:05.388Z,2.14
2022-12-18T20:41:38.307Z,1.81
2022-12-18T20:44:21.717Z,2.01
2022-12-18T20:46:56.357Z,1.82
2022-12-18T20:49:26.147Z,2.10
2022-12-18T20:51:56.588Z,1.58
2022-12-18T20:54:26.139Z,1.43
2022-12-18T20:56:55.155Z,1.79
2022-12-18T20:59:25.200Z,1.89
2022-12-18T21:01:52.899Z,1.52
2022-12-18T21:04:22.182Z,1.43
2022-12-18T21:06:54.211Z,1.84
2022-12-18T21:09:37.680Z,1.48
2022-12-18T21:12:33.459Z,1.71
2022-12-18T21:15:05.331Z,2.16
2022-12-18T21:17:40.122Z,2.11
2022-12-18T21:20:18.102Z,1.87
2022-12-18T21:22:47.287Z,1.38
2022-12-18T21:25:15.157Z,1.17
2022-12-18T21:27:42.758Z,1.52
2022-12-18T21:30:10.937Z,1.17
2022-12-18T21:32:38.898Z,1.49
2022-12-18T21:35:06.831Z,1.93
2022-12-18T21:37:34.368Z,1.12
2022-12-18T21:40:02.340Z,1.26
2022-12-18T21:42:48.901Z,1.50
2022-12-18T21:45:16.914Z,1.61
2022-12-18T21:47:44.622Z,1.76
2022-12-18T21:50:12.928Z,1.92
2022-12-18T21:52:40.969Z,1.84
2022-12-18T21:55:10.244Z,1.63
2022-12-18T21:57:39.436Z,1.37
2022-12-18T22:00:18.761Z,1.48
2022-12-18T22:02:49.594Z,1.29
2022-12-18T22:05:36.487Z,1.18
2022-12-18T22:08:04.468Z,1.31
2022-12-18T22:10:32.109Z,1.05
2022-12-18T22:12:59.602Z,0.87
2022-12-18T22:15:27.557Z,0.82
2022-12-18T22:18:00.198Z,0.80
2022-12-18T22:20:29.948Z,0.71
2022-12-18T22:22:58.742Z,0.48
2022-12-18T22:25:28.959Z,0.29
2022-12-18T22:28:14.999Z,0.35
2022-12-18T22:30:44.028Z,0.30
2022-12-18T22:33:11.763Z,0.16
2022-12-18T22:35:39.344Z,0.11
2022-12-18T22:38:07.679Z,0.26
2022-12-18T22:40:35.259Z,-0.05
2022-12-18T22:43:03.128Z,-0.04
2022-12-18T22:45:30.965Z,-0.05
2022-12-18T22:48:00.261Z,-0.37
2022-12-18T22:50:28.006Z,-0.27
2022-12-18T22:52:55.804Z,-0.55
2022-12-18T22:55:23.301Z,-0.40
2022-12-18T22:57:53.948Z,-0.49
2022-12-18T23:00:24.598Z,-0.47
2022-12-18T23:02:59.785Z,-0.88
2022-12-18T23:05:31.720Z,-0.48
2022-12-18T23:07:59.533Z,-0.61
2022-12-18T23:10:28.737Z,-0.34
2022-12-18T23:12:56.367Z,-0.36
2022-12-18T23:15:27.781Z,-0.41
2022-12-18T23:17:58.694Z,-0.51
2022-12-18T23:20:29.278Z,-0.59
2022-12-18T23:22:57.123Z,-0.58
2022-12-18T23:25:24.717Z,-0.50
2022-12-18T23:27:52.259Z,-0.68
2022-12-18T23:30:20.233Z,-0.55
2022-12-18T23:32:48.304Z,-0.51
2022-12-18T23:35:17.178Z,-0.71
2022-12-18T23:37:58.818Z,-0.76
2022-12-18T23:40:27.757Z,-0.85
2022-12-18T23:42:55.593Z,-0.81
2022-12-18T23:45:23.206Z,-0.67
2022-12-18T23:47:51.222Z,-0.81
2022-12-18T23:50:19.360Z,-0.73
2022-12-18T23:52:51.156Z,-0.69
2022-12-18T23:55:19.007Z,-0.76
2022-12-18T23:57:47.879Z,-0.86
